Montpelier, Louisiana
Current Conditions -  °F | °C
As of 2:03 AM on Monday 22 Dec 2014 (Local Time) from KBTR Reporting Station
Haze Haze  
Wind Chill: 53°   Ceiling: 200
Heat Index: 53°   Visibility: 0.75mi
Dew Point: 52°   Wind: 5mph
Humidity: 96%   Direction: 90°E
Pressure: 29.88"   Gusts: NA
Location:  30.7279°N, 90.6769°W
Report Text: KBTR 220803Z 09004KT 3/4SM BR VV002 12/11 A2988 RMK AO2 T01170111 RVRNO
Loading
Personal Weather Stations






























Interactive Weather Map New forecast layout! Learn more

10-Day Weather Forecast

Advertisements
Track Severe Weather on mobile